createdAt,value
2022-09-12T00:01:28.056Z,1.70
2022-09-12T00:04:00.548Z,1.80
2022-09-12T00:06:34.200Z,1.70
2022-09-12T00:09:08.337Z,1.70
2022-09-12T00:11:42.934Z,1.40
2022-09-12T00:14:15.550Z,1.60
2022-09-12T00:16:43.967Z,2.30
2022-09-12T00:19:12.353Z,1.60
2022-09-12T00:21:41.004Z,1.40
2022-09-12T00:24:10.599Z,1.60
2022-09-12T00:26:38.855Z,1.90
2022-09-12T00:29:06.929Z,1.70
2022-09-12T00:31:35.373Z,1.60
2022-09-12T00:34:03.185Z,1.60
2022-09-12T00:36:31.689Z,1.50
2022-09-12T00:38:59.698Z,1.70
2022-09-12T00:41:32.665Z,1.50
2022-09-12T00:44:22.651Z,1.70
2022-09-12T00:47:14.435Z,1.60
2022-09-12T00:50:09.694Z,1.60
2022-09-12T00:52:44.742Z,1.50
2022-09-12T00:55:38.636Z,1.50
2022-09-12T00:58:22.690Z,1.60
2022-09-12T01:00:52.519Z,1.80
2022-09-12T01:03:23.614Z,1.60
2022-09-12T01:06:08.032Z,1.60
2022-09-12T01:08:41.314Z,1.70
2022-09-12T01:11:12.916Z,1.70
2022-09-12T01:13:40.710Z,1.70
2022-09-12T01:16:09.028Z,1.70
2022-09-12T01:19:07.846Z,1.50
2022-09-12T01:22:17.153Z,1.90
2022-09-12T01:25:19.103Z,1.70
2022-09-12T01:28:14.978Z,1.70
2022-09-12T01:30:55.911Z,1.70
2022-09-12T01:33:45.134Z,1.50
2022-09-12T01:36:40.443Z,1.70
2022-09-12T01:39:27.712Z,2.00
2022-09-12T01:42:42.067Z,2.00
2022-09-12T01:45:41.434Z,2.00
2022-09-12T01:48:31.877Z,1.60
2022-09-12T01:51:16.805Z,1.90
2022-09-12T01:53:52.453Z,1.80
2022-09-12T01:56:34.350Z,1.70
2022-09-12T01:59:18.523Z,1.70
2022-09-12T02:02:01.370Z,1.80
2022-09-12T02:04:38.943Z,1.90
2022-09-12T02:07:18.202Z,1.90
2022-09-12T02:10:13.943Z,1.60
2022-09-12T02:12:55.245Z,1.80
2022-09-12T02:15:36.780Z,2.40
2022-09-12T02:18:07.139Z,1.80
2022-09-12T02:20:54.644Z,1.50
2022-09-12T02:23:28.793Z,2.10
2022-09-12T02:31:31.905Z,1.70
2022-09-12T02:34:21.506Z,2.10
2022-09-12T02:37:04.991Z,2.20
2022-09-12T02:39:33.894Z,2.00
2022-09-12T02:42:04.102Z,2.10
2022-09-12T02:44:35.311Z,1.90
2022-09-12T02:47:12.767Z,2.10
2022-09-12T02:49:40.483Z,1.90
2022-09-12T02:52:08.238Z,2.00
2022-09-12T02:54:38.229Z,1.90
2022-09-12T02:57:22.859Z,1.80
2022-09-12T02:59:56.937Z,1.30
2022-09-12T03:02:35.594Z,2.20
2022-09-12T03:05:15.306Z,1.80
2022-09-12T03:08:08.695Z,2.20
2022-09-12T03:11:07.961Z,2.30
2022-09-12T03:14:07.540Z,2.50
2022-09-12T03:16:55.010Z,2.10
2022-09-12T03:20:03.349Z,2.20
2022-09-12T03:22:38.964Z,2.50
2022-09-12T03:25:28.195Z,1.70
2022-09-12T03:28:16.233Z,2.20
2022-09-12T03:30:51.457Z,2.50
2022-09-12T03:33:22.859Z,2.50
2022-09-12T03:35:53.136Z,2.50
2022-09-12T03:38:20.902Z,2.40
2022-09-12T03:40:52.717Z,2.40
2022-09-12T03:43:23.081Z,2.60
2022-09-12T03:45:54.792Z,2.70
2022-09-12T03:48:22.637Z,2.30
2022-09-12T03:50:50.391Z,2.80
2022-09-12T03:53:18.237Z,2.60
2022-09-12T03:55:45.894Z,1.80
2022-09-12T03:58:13.636Z,2.60
2022-09-12T04:00:42.960Z,3.30
2022-09-12T04:03:10.649Z,2.70
2022-09-12T04:05:38.308Z,4.00
2022-09-12T04:08:06.821Z,3.60
2022-09-12T04:10:34.913Z,3.90
2022-09-12T04:13:02.691Z,4.80
2022-09-12T04:15:30.401Z,6.70
2022-09-12T04:18:02.443Z,5.50
2022-09-12T04:20:33.341Z,4.90
2022-09-12T04:23:01.074Z,6.60
2022-09-12T04:25:29.733Z,5.90
2022-09-12T04:27:57.602Z,6.60
2022-09-12T04:30:25.389Z,6.70
2022-09-12T04:32:53.222Z,6.30
2022-09-12T04:35:21.028Z,5.90
2022-09-12T04:37:48.680Z,7.10
2022-09-12T04:40:16.440Z,7.00
2022-09-12T04:42:45.218Z,6.40
2022-09-12T04:45:13.817Z,6.90
2022-09-12T04:47:41.625Z,5.90
2022-09-12T04:50:10.273Z,7.10
2022-09-12T04:52:38.036Z,6.80
2022-09-12T04:55:06.899Z,7.90
2022-09-12T04:57:36.341Z,5.20
2022-09-12T05:00:14.001Z,6.60
2022-09-12T05:02:42.385Z,6.90
2022-09-12T05:05:11.570Z,7.30
2022-09-12T05:07:39.302Z,7.30
2022-09-12T05:10:08.930Z,7.30
2022-09-12T05:12:37.053Z,6.80
2022-09-12T05:15:06.445Z,6.40
2022-09-12T05:17:34.234Z,6.30
2022-09-12T05:20:03.613Z,6.70
2022-09-12T05:22:31.337Z,5.40
2022-09-12T05:24:59.144Z,5.50
2022-09-12T05:27:26.777Z,6.20
2022-09-12T05:29:55.255Z,4.70
2022-09-12T05:32:23.017Z,5.60
2022-09-12T05:34:51.001Z,7.60
2022-09-12T05:37:18.887Z,6.70
2022-09-12T05:39:46.794Z,8.00
2022-09-12T05:42:15.109Z,6.40
2022-09-12T05:44:42.804Z,5.80
2022-09-12T05:47:13.637Z,5.30
2022-09-12T05:49:41.680Z,5.60
2022-09-12T05:52:09.311Z,3.80
2022-09-12T05:54:37.284Z,6.30
2022-09-12T05:57:05.240Z,6.10
2022-09-12T05:59:33.028Z,4.80
2022-09-12T06:02:00.807Z,5.20
2022-09-12T06:04:28.639Z,6.10
2022-09-12T06:06:56.679Z,4.60
2022-09-12T06:09:25.807Z,5.00
2022-09-12T06:11:54.460Z,5.50
2022-09-12T06:14:22.405Z,4.30
2022-09-12T06:16:50.626Z,4.40
2022-09-12T06:19:21.876Z,4.20
2022-09-12T06:21:51.694Z,5.10
2022-09-12T06:24:21.434Z,2.90
2022-09-12T06:26:52.849Z,3.00
2022-09-12T06:29:22.001Z,3.40
2022-09-12T06:31:49.769Z,3.70
2022-09-12T06:34:17.764Z,3.70
2022-09-12T06:36:50.041Z,3.90
2022-09-12T06:39:21.611Z,3.20
2022-09-12T06:41:51.705Z,4.00
2022-09-12T06:44:22.865Z,4.20
2022-09-12T06:46:53.887Z,3.90
2022-09-12T06:49:21.701Z,3.60
2022-09-12T06:51:49.722Z,4.10
2022-09-12T06:54:17.631Z,3.80
2022-09-12T06:56:45.676Z,3.50
2022-09-12T06:59:13.476Z,3.70
2022-09-12T07:01:41.986Z,3.80
2022-09-12T07:04:10.626Z,3.40
2022-09-12T07:06:42.068Z,3.70
2022-09-12T07:09:16.322Z,3.00
2022-09-12T07:11:46.402Z,3.10
2022-09-12T07:14:15.524Z,3.40
2022-09-12T07:16:43.444Z,3.10
2022-09-12T07:19:12.276Z,3.70
2022-09-12T07:21:41.647Z,3.60
2022-09-12T07:24:10.850Z,2.40
2022-09-12T07:26:42.354Z,3.00
2022-09-12T07:32:06.307Z,2.70
2022-09-12T07:34:35.608Z,3.10
2022-09-12T07:37:04.109Z,3.40
2022-09-12T07:39:32.471Z,2.90
2022-09-12T07:42:00.641Z,2.60
2022-09-12T07:44:30.173Z,2.80
2022-09-12T07:46:57.961Z,2.70
2022-09-12T07:49:25.880Z,2.90
2022-09-12T07:51:54.233Z,3.70
2022-09-12T07:54:22.604Z,2.30
2022-09-12T07:56:50.240Z,3.10
2022-09-12T07:59:30.248Z,3.00
2022-09-12T08:02:05.738Z,3.70
2022-09-12T08:04:33.436Z,3.30
2022-09-12T08:07:01.440Z,3.30
2022-09-12T08:09:29.100Z,3.50
2022-09-12T08:11:58.221Z,3.80
2022-09-12T08:14:26.104Z,3.70
2022-09-12T08:16:54.194Z,3.40
2022-09-12T08:19:22.908Z,2.90
2022-09-12T08:21:50.873Z,3.30
2022-09-12T08:24:18.969Z,3.30
2022-09-12T08:26:46.945Z,3.00
2022-09-12T08:29:14.806Z,2.90
2022-09-12T08:31:42.610Z,2.70
2022-09-12T08:34:10.511Z,3.00
2022-09-12T08:36:38.922Z,3.00
2022-09-12T08:39:11.261Z,3.00
2022-09-12T08:41:47.416Z,3.40
2022-09-12T08:45:05.317Z,2.70
2022-09-12T08:47:41.513Z,2.60
2022-09-12T08:50:12.096Z,2.60
2022-09-12T08:53:02.570Z,3.20
2022-09-12T08:55:49.535Z,2.90
2022-09-12T08:58:24.144Z,2.60
2022-09-12T09:01:13.994Z,2.30
2022-09-12T09:03:56.730Z,2.70
2022-09-12T09:06:39.510Z,2.20
2022-09-12T09:09:39.446Z,2.80
2022-09-12T09:12:18.728Z,3.10
2022-09-12T09:15:52.843Z,2.80
2022-09-12T09:18:28.835Z,3.00
2022-09-12T09:21:05.044Z,3.40
2022-09-12T09:23:47.095Z,2.90
2022-09-12T09:26:30.565Z,3.30
2022-09-12T09:29:13.914Z,3.20
2022-09-12T09:31:45.622Z,2.80
2022-09-12T09:34:30.055Z,3.10
2022-09-12T09:37:20.066Z,3.60
2022-09-12T09:40:27.521Z,2.90
2022-09-12T09:43:05.293Z,2.70
2022-09-12T09:45:34.008Z,2.90
2022-09-12T09:48:46.088Z,3.00
2022-09-12T09:51:19.336Z,3.80
2022-09-12T09:53:54.973Z,3.50
2022-09-12T09:56:44.578Z,2.80
2022-09-12T09:59:33.631Z,2.60
2022-09-12T10:02:24.244Z,3.00
2022-09-12T10:04:58.917Z,2.90
2022-09-12T10:07:27.485Z,3.20
2022-09-12T10:10:17.749Z,2.60
2022-09-12T10:12:45.759Z,3.40
2022-09-12T10:15:21.777Z,3.10
2022-09-12T10:17:51.840Z,2.90
2022-09-12T10:20:42.645Z,3.30
2022-09-12T10:23:50.960Z,3.00
2022-09-12T10:26:21.875Z,2.70
2022-09-12T10:28:54.900Z,3.10
2022-09-12T10:31:44.242Z,3.00
2022-09-12T10:34:34.407Z,2.70
2022-09-12T10:37:17.244Z,3.10
2022-09-12T10:39:54.610Z,2.80
2022-09-12T10:42:48.374Z,3.10
2022-09-12T10:45:37.966Z,3.60
2022-09-12T10:48:32.809Z,3.90
2022-09-12T10:51:01.740Z,4.30
2022-09-12T10:53:40.907Z,3.90
2022-09-12T10:56:17.254Z,3.90
2022-09-12T10:59:25.517Z,4.40
2022-09-12T11:02:15.218Z,4.40
2022-09-12T11:05:37.439Z,4.20
2022-09-12T11:08:26.621Z,3.90
2022-09-12T11:11:16.298Z,3.80
2022-09-12T11:14:12.522Z,3.40
2022-09-12T11:16:48.851Z,3.60
2022-09-12T11:19:53.926Z,3.50
2022-09-12T11:22:46.627Z,3.20
2022-09-12T11:25:35.245Z,2.60
2022-09-12T11:28:31.200Z,2.50
2022-09-12T11:31:26.648Z,2.70
2022-09-12T11:34:02.323Z,3.10
2022-09-12T11:37:35.733Z,2.80
2022-09-12T11:40:36.136Z,3.30
2022-09-12T11:43:42.655Z,2.60
2022-09-12T11:46:37.274Z,2.70
2022-09-12T11:49:24.280Z,1.80
2022-09-12T11:52:18.549Z,2.10
2022-09-12T11:55:05.964Z,1.70
2022-09-12T11:57:51.258Z,1.90
2022-09-12T12:00:48.938Z,1.40
2022-09-12T12:03:41.908Z,1.20
2022-09-12T12:06:21.601Z,1.60
2022-09-12T12:08:50.813Z,1.60
2022-09-12T12:11:35.575Z,1.80
2022-09-12T12:14:18.584Z,1.40
2022-09-12T12:16:47.863Z,1.60
2022-09-12T12:19:15.790Z,1.40
2022-09-12T12:21:47.290Z,1.60
2022-09-12T12:24:24.432Z,1.60
2022-09-12T12:26:59.017Z,1.80
2022-09-12T12:29:38.304Z,1.90
2022-09-12T12:32:09.236Z,1.80
2022-09-12T12:34:42.816Z,2.00
2022-09-12T12:37:19.902Z,1.80
2022-09-12T12:39:54.017Z,2.50
2022-09-12T12:42:34.258Z,2.30
2022-09-12T12:45:08.464Z,2.00
2022-09-12T12:47:36.177Z,1.80
2022-09-12T12:50:10.449Z,2.10
2022-09-12T12:55:51.800Z,2.00
2022-09-12T12:58:31.623Z,2.30
2022-09-12T13:01:18.911Z,2.20
2022-09-12T13:03:57.202Z,2.40
2022-09-12T13:06:43.534Z,2.10
2022-09-12T13:09:33.209Z,2.20
2022-09-12T13:12:18.698Z,2.30
2022-09-12T13:14:46.960Z,2.10
2022-09-12T13:17:43.923Z,1.90
2022-09-12T13:20:31.101Z,1.70
2022-09-12T13:22:59.318Z,2.20
2022-09-12T13:25:34.282Z,1.80
2022-09-12T13:28:10.714Z,1.80
2022-09-12T13:30:44.838Z,1.70
2022-09-12T13:33:52.449Z,1.80
2022-09-12T13:37:09.206Z,1.80
2022-09-12T13:39:59.164Z,2.00
2022-09-12T13:42:42.977Z,1.40
2022-09-12T13:45:23.172Z,2.10
2022-09-12T13:48:02.039Z,1.70
2022-09-12T13:50:41.118Z,1.90
2022-09-12T13:53:22.501Z,2.10
2022-09-12T13:55:57.010Z,1.30
2022-09-12T13:58:32.127Z,2.00
2022-09-12T14:01:21.109Z,2.10
2022-09-12T14:04:15.476Z,1.50
2022-09-12T14:06:51.448Z,1.40
2022-09-12T14:09:26.957Z,1.10
2022-09-12T14:11:55.827Z,2.00
2022-09-12T14:14:42.165Z,2.20
2022-09-12T14:17:32.978Z,2.10
2022-09-12T14:20:23.401Z,1.70
2022-09-12T14:22:53.434Z,1.90
2022-09-12T14:25:30.047Z,1.50
2022-09-12T14:27:59.119Z,1.50
2022-09-12T14:30:34.648Z,1.90
2022-09-12T14:33:11.687Z,1.70
2022-09-12T14:36:12.104Z,1.60
2022-09-12T14:38:47.892Z,1.80
2022-09-12T14:41:27.417Z,2.00
2022-09-12T14:44:01.346Z,1.50
2022-09-12T14:49:35.110Z,1.80
2022-09-12T14:52:23.378Z,1.60
2022-09-12T14:55:19.775Z,1.70
2022-09-12T14:57:48.126Z,1.80
2022-09-12T15:00:24.458Z,1.50
2022-09-12T15:02:53.573Z,2.10
2022-09-12T15:05:28.187Z,1.70
2022-09-12T15:08:01.366Z,1.90
2022-09-12T15:10:42.302Z,1.50
2022-09-12T15:13:09.910Z,1.80
2022-09-12T15:15:39.910Z,2.40
2022-09-12T15:18:08.692Z,2.20
2022-09-12T15:20:39.901Z,2.20
2022-09-12T15:23:18.144Z,2.40
2022-09-12T15:25:46.454Z,2.20
2022-09-12T15:28:21.280Z,2.20
2022-09-12T15:30:53.274Z,2.20
2022-09-12T15:33:24.793Z,2.10
2022-09-12T15:35:53.601Z,2.30
2022-09-12T15:38:26.325Z,2.60
2022-09-12T15:40:55.873Z,2.50
2022-09-12T15:43:26.264Z,1.90
2022-09-12T15:45:54.110Z,2.60
2022-09-12T15:48:21.936Z,2.30
2022-09-12T15:50:49.690Z,2.70
2022-09-12T15:53:17.958Z,1.80
2022-09-12T15:55:46.022Z,2.50
2022-09-12T15:58:14.364Z,3.10
2022-09-12T16:00:42.032Z,2.10
2022-09-12T16:03:36.288Z,1.90
2022-09-12T16:06:05.382Z,3.10
2022-09-12T16:08:34.678Z,3.00
2022-09-12T16:11:30.802Z,2.50
2022-09-12T16:13:59.630Z,2.60
2022-09-12T16:16:27.386Z,2.30
2022-09-12T16:18:55.181Z,2.40
2022-09-12T16:21:23.339Z,3.00
2022-09-12T16:23:51.330Z,2.80
2022-09-12T16:26:19.689Z,2.30
2022-09-12T16:28:47.814Z,2.50
2022-09-12T16:31:15.733Z,2.70
2022-09-12T16:33:43.625Z,2.50
2022-09-12T16:36:14.877Z,3.30
2022-09-12T16:38:54.360Z,3.00
2022-09-12T16:41:28.217Z,2.70
2022-09-12T16:43:57.129Z,3.00
2022-09-12T16:46:28.951Z,2.40
2022-09-12T16:48:59.277Z,2.20
2022-09-12T16:51:37.518Z,3.00
2022-09-12T16:54:05.289Z,2.70
2022-09-12T16:56:34.039Z,2.90
2022-09-12T16:59:01.907Z,2.60
2022-09-12T17:01:29.629Z,2.20
2022-09-12T17:03:58.904Z,2.70
2022-09-12T17:06:28.392Z,2.60
2022-09-12T17:09:01.635Z,2.60
2022-09-12T17:11:39.512Z,3.60
2022-09-12T17:14:09.648Z,3.50
2022-09-12T17:16:50.778Z,3.50
2022-09-12T17:19:30.020Z,3.80
2022-09-12T17:21:58.177Z,3.70
2022-09-12T17:24:26.866Z,2.60
2022-09-12T17:26:54.671Z,3.90
2022-09-12T17:29:22.695Z,3.40
2022-09-12T17:31:50.735Z,3.60
2022-09-12T17:34:18.673Z,4.10
2022-09-12T17:36:48.554Z,2.40
2022-09-12T17:39:16.321Z,3.60
2022-09-12T17:41:46.198Z,5.60
2022-09-12T17:44:15.613Z,4.20
2022-09-12T17:46:44.667Z,3.50
2022-09-12T17:49:15.791Z,4.10
2022-09-12T17:51:44.217Z,3.70
2022-09-12T17:54:16.183Z,3.30
2022-09-12T17:56:46.737Z,4.10
2022-09-12T17:59:18.589Z,3.50
2022-09-12T18:02:06.183Z,3.30
2022-09-12T18:04:34.993Z,3.80
2022-09-12T18:07:03.448Z,4.10
2022-09-12T18:09:31.169Z,3.30
2022-09-12T18:11:59.460Z,4.00
2022-09-12T18:14:28.261Z,4.30
2022-09-12T18:17:00.633Z,3.80
2022-09-12T18:19:28.807Z,3.80
2022-09-12T18:21:57.463Z,2.80
2022-09-12T18:24:25.564Z,3.90
2022-09-12T18:26:56.709Z,3.90
2022-09-12T18:29:27.921Z,4.00
2022-09-12T18:31:56.555Z,2.20
2022-09-12T18:34:24.437Z,3.90
2022-09-12T18:36:54.977Z,2.90
2022-09-12T18:39:26.806Z,2.60
2022-09-12T18:41:55.696Z,2.50
2022-09-12T18:44:23.364Z,2.00
2022-09-12T18:46:51.357Z,3.00
2022-09-12T18:49:19.627Z,2.00
2022-09-12T18:51:47.402Z,2.50
2022-09-12T18:54:17.602Z,2.00
2022-09-12T18:56:45.934Z,2.50
2022-09-12T18:59:15.670Z,2.40
2022-09-12T19:01:45.161Z,2.40
2022-09-12T19:04:14.992Z,2.10
2022-09-12T19:06:47.089Z,1.70
2022-09-12T19:09:18.319Z,1.60
2022-09-12T19:11:50.575Z,1.10
2022-09-12T19:14:25.380Z,1.40
2022-09-12T19:16:56.118Z,7.80
2022-09-12T19:19:23.821Z,3.30
2022-09-12T19:21:51.931Z,2.40
2022-09-12T19:24:21.891Z,1.60
2022-09-12T19:26:51.481Z,1.40
2022-09-12T19:29:19.368Z,1.20
2022-09-12T19:31:47.646Z,1.50
2022-09-12T19:34:16.032Z,1.40
2022-09-12T19:36:45.934Z,1.20
2022-09-12T19:39:20.013Z,1.00
2022-09-12T19:41:48.747Z,0.90
2022-09-12T19:44:19.468Z,1.10
2022-09-12T19:46:47.313Z,1.30
2022-09-12T19:49:15.231Z,0.90
2022-09-12T19:51:43.901Z,1.00
2022-09-12T19:54:12.264Z,0.70
2022-09-12T19:56:40.563Z,0.90
2022-09-12T19:59:09.242Z,0.90
2022-09-12T20:01:37.571Z,0.70
2022-09-12T20:04:06.990Z,0.70
2022-09-12T20:06:37.022Z,0.80
2022-09-12T20:09:05.518Z,0.80
2022-09-12T20:11:34.522Z,0.70
2022-09-12T20:14:02.499Z,0.70
2022-09-12T20:16:31.179Z,0.80
2022-09-12T20:19:04.069Z,0.60
2022-09-12T20:21:34.182Z,0.90
2022-09-12T20:24:08.304Z,0.60
2022-09-12T20:26:37.099Z,0.60
2022-09-12T20:29:07.062Z,0.60
2022-09-12T20:31:38.440Z,0.40
2022-09-12T20:34:08.401Z,0.60
2022-09-12T20:36:36.370Z,0.70
2022-09-12T20:39:04.951Z,0.60
2022-09-12T20:41:38.070Z,0.50
2022-09-12T20:44:06.129Z,0.50
2022-09-12T20:46:34.334Z,0.40
2022-09-12T20:49:03.258Z,0.50
2022-09-12T20:51:31.705Z,0.50
2022-09-12T20:54:03.658Z,0.40
2022-09-12T20:56:35.748Z,0.60
2022-09-12T20:59:05.687Z,0.80
2022-09-12T21:01:33.740Z,1.00
2022-09-12T21:04:02.304Z,0.90
2022-09-12T21:06:31.609Z,1.30
2022-09-12T21:09:00.670Z,0.60
2022-09-12T21:11:29.725Z,1.00
2022-09-12T21:13:58.174Z,1.10
2022-09-12T21:16:26.333Z,1.10
2022-09-12T21:18:59.547Z,0.60
2022-09-12T21:21:27.449Z,0.90
2022-09-12T21:24:02.419Z,0.70
2022-09-12T21:26:32.068Z,0.70
2022-09-12T21:29:00.292Z,1.00
2022-09-12T21:31:28.493Z,0.90
2022-09-12T21:33:56.311Z,0.60
2022-09-12T21:36:24.852Z,1.10
2022-09-12T21:38:52.764Z,0.80
2022-09-12T21:41:20.623Z,1.10
2022-09-12T21:43:48.442Z,1.10
2022-09-12T21:46:16.538Z,0.90
2022-09-12T21:48:44.261Z,0.90
2022-09-12T21:51:12.240Z,1.10
2022-09-12T21:53:40.393Z,0.70
2022-09-12T21:56:09.785Z,0.90
2022-09-12T21:58:38.420Z,0.90
2022-09-12T22:01:09.675Z,1.10
2022-09-12T22:03:37.554Z,0.60
2022-09-12T22:06:07.424Z,0.80
2022-09-12T22:08:40.095Z,1.20
2022-09-12T22:11:12.930Z,1.00
2022-09-12T22:13:43.988Z,1.30
2022-09-12T22:16:12.653Z,0.80
2022-09-12T22:18:40.801Z,1.10
2022-09-12T22:21:16.128Z,1.30
2022-09-12T22:24:03.123Z,1.00
2022-09-12T22:26:35.052Z,1.10
2022-09-12T22:29:02.703Z,1.60
2022-09-12T22:31:31.079Z,1.00
2022-09-12T22:33:59.653Z,0.80
2022-09-12T22:36:31.091Z,1.00
2022-09-12T22:39:00.367Z,1.40
2022-09-12T22:41:28.557Z,1.80
2022-09-12T22:43:57.446Z,0.90
2022-09-12T22:46:25.787Z,1.20
2022-09-12T22:48:55.782Z,0.90
2022-09-12T22:51:23.965Z,1.20
2022-09-12T22:53:52.196Z,1.20
2022-09-12T22:56:20.067Z,1.40
2022-09-12T22:58:48.173Z,0.90
2022-09-12T23:01:15.965Z,0.80
2022-09-12T23:03:44.382Z,0.70
2022-09-12T23:06:12.272Z,0.80
2022-09-12T23:08:40.757Z,0.70
2022-09-12T23:11:13.330Z,0.60
2022-09-12T23:13:48.894Z,0.60
2022-09-12T23:16:24.835Z,0.40
2022-09-12T23:18:52.688Z,0.60
2022-09-12T23:21:22.372Z,0.50
2022-09-12T23:23:50.758Z,0.60
2022-09-12T23:26:21.599Z,0.60
2022-09-12T23:28:57.756Z,0.50
2022-09-12T23:31:30.346Z,0.60
2022-09-12T23:34:05.915Z,0.40
2022-09-12T23:36:34.737Z,0.60
2022-09-12T23:39:03.719Z,0.60
2022-09-12T23:41:32.556Z,0.50
2022-09-12T23:44:00.740Z,0.70
2022-09-12T23:46:28.394Z,0.50
2022-09-12T23:48:56.067Z,0.60
2022-09-12T23:51:23.940Z,0.40
2022-09-12T23:53:52.473Z,0.60
2022-09-12T23:56:22.213Z,0.50
2022-09-12T23:58:50.327Z,0.30
